createdAt,value
2022-08-23T00:02:32.740Z,80.00
2022-08-23T00:05:35.612Z,79.40
2022-08-23T00:08:38.312Z,79.00
2022-08-23T00:11:50.375Z,79.40
2022-08-23T00:14:55.033Z,79.00
2022-08-23T00:17:56.677Z,79.70
2022-08-23T00:20:58.372Z,80.20
2022-08-23T00:23:59.951Z,79.90
2022-08-23T00:27:13.813Z,80.00
2022-08-23T00:30:16.475Z,79.00
2022-08-23T00:33:18.049Z,81.70
2022-08-23T00:36:19.651Z,80.50
2022-08-23T00:39:21.428Z,80.40
2022-08-23T00:42:59.682Z,80.50
2022-08-23T00:46:44.179Z,78.70
2022-08-23T00:49:50.089Z,81.10
2022-08-23T00:52:57.878Z,80.50
2022-08-23T00:56:03.481Z,80.60
2022-08-23T00:59:06.714Z,80.60
2022-08-23T01:02:09.120Z,80.80
2022-08-23T01:05:12.423Z,82.30
2022-08-23T01:08:15.660Z,81.30
2022-08-23T01:11:33.256Z,81.90
2022-08-23T01:14:44.030Z,82.20
2022-08-23T01:18:01.582Z,80.50
2022-08-23T01:21:16.605Z,82.70
2022-08-23T01:24:41.054Z,81.00
2022-08-23T01:27:41.262Z,83.20
2022-08-23T01:30:44.583Z,83.30
2022-08-23T01:33:49.840Z,82.60
2022-08-23T01:36:51.432Z,83.70
2022-08-23T01:39:53.312Z,83.00
2022-08-23T01:42:54.982Z,84.50
2022-08-23T01:45:56.598Z,83.20
2022-08-23T01:48:58.556Z,83.80
2022-08-23T01:52:00.162Z,83.70
2022-08-23T01:55:04.563Z,83.90
2022-08-23T01:58:07.943Z,84.00
2022-08-23T02:01:09.798Z,84.50
2022-08-23T02:04:11.423Z,84.30
2022-08-23T02:07:13.091Z,84.10
2022-08-23T02:10:15.118Z,83.40
2022-08-23T02:13:17.687Z,84.80
2022-08-23T02:16:31.652Z,84.90
2022-08-23T02:19:34.875Z,85.50
2022-08-23T02:22:39.482Z,85.50
2022-08-23T02:25:41.123Z,85.40
2022-08-23T02:28:42.812Z,86.30
2022-08-23T02:31:44.662Z,85.30
2022-08-23T02:35:05.164Z,85.80
2022-08-23T02:38:11.684Z,86.00
2022-08-23T02:41:14.201Z,87.30
2022-08-23T02:44:16.196Z,86.50
2022-08-23T02:47:18.157Z,87.10
2022-08-23T02:50:20.221Z,86.50
2022-08-23T02:53:21.979Z,86.30
2022-08-23T02:56:23.792Z,86.50
2022-08-23T02:59:25.513Z,87.20
2022-08-23T03:02:27.613Z,87.60
2022-08-23T03:05:30.246Z,87.10
2022-08-23T03:08:31.938Z,88.40
2022-08-23T03:11:34.310Z,87.40
2022-08-23T03:14:37.943Z,90.50
2022-08-23T03:17:40.022Z,87.70
2022-08-23T03:20:42.734Z,87.80
2022-08-23T03:23:44.733Z,88.60
2022-08-23T03:26:46.791Z,87.90
2022-08-23T03:29:48.835Z,88.20
2022-08-23T03:32:50.588Z,88.30
2022-08-23T03:35:52.225Z,88.30
2022-08-23T03:38:53.844Z,88.50
2022-08-23T03:41:55.516Z,88.70
2022-08-23T03:45:01.908Z,89.70
2022-08-23T03:48:04.877Z,88.90
2022-08-23T03:51:06.659Z,89.10
2022-08-23T03:54:08.468Z,89.20
2022-08-23T03:57:10.252Z,89.10
2022-08-23T04:00:14.210Z,89.30
2022-08-23T04:03:21.986Z,89.40
2022-08-23T04:06:23.634Z,90.10
2022-08-23T04:09:25.232Z,89.80
2022-08-23T04:12:26.883Z,90.00
2022-08-23T04:15:28.767Z,89.70
2022-08-23T04:18:31.944Z,89.20
2022-08-23T04:21:35.411Z,89.80
2022-08-23T04:24:37.284Z,89.90
2022-08-23T04:27:38.882Z,89.60
2022-08-23T04:30:40.554Z,90.00
2022-08-23T04:33:43.640Z,89.80
2022-08-23T04:36:50.011Z,90.00
2022-08-23T04:40:11.976Z,90.00
2022-08-23T04:43:13.695Z,90.10
2022-08-23T04:46:16.220Z,90.00
2022-08-23T04:49:18.672Z,90.10
2022-08-23T04:52:20.353Z,90.20
2022-08-23T04:55:22.074Z,90.00
2022-08-23T04:58:23.714Z,90.20
2022-08-23T05:01:25.594Z,90.20
2022-08-23T05:04:27.379Z,90.10
2022-08-23T05:07:41.611Z,90.10
2022-08-23T05:10:44.496Z,90.10
2022-08-23T05:13:46.842Z,89.80
2022-08-23T05:16:48.445Z,90.00
2022-08-23T05:19:50.063Z,89.10
2022-08-23T05:22:51.665Z,88.80
2022-08-23T05:25:56.750Z,89.40
2022-08-23T05:28:58.336Z,88.30
2022-08-23T05:31:59.936Z,88.00
2022-08-23T05:35:01.554Z,87.90
2022-08-23T05:38:04.413Z,87.40
2022-08-23T05:41:07.079Z,86.60
2022-08-23T05:44:10.365Z,87.00
2022-08-23T05:47:15.854Z,85.70
2022-08-23T05:50:17.564Z,85.20
2022-08-23T05:53:19.164Z,84.80
2022-08-23T05:56:33.249Z,84.30
2022-08-23T05:59:34.841Z,84.60
2022-08-23T06:02:36.428Z,84.10
2022-08-23T06:05:41.794Z,84.00
2022-08-23T06:08:46.306Z,83.70
2022-08-23T06:11:48.876Z,84.80
2022-08-23T06:14:50.550Z,83.00
2022-08-23T06:17:54.312Z,82.60
2022-08-23T06:21:04.656Z,83.10
2022-08-23T06:24:07.151Z,82.60
2022-08-23T06:27:08.828Z,82.00
2022-08-23T06:30:13.149Z,82.30
2022-08-23T06:33:15.571Z,80.70
2022-08-23T06:36:17.283Z,81.80
2022-08-23T06:39:21.265Z,81.20
2022-08-23T06:42:38.290Z,80.80
2022-08-23T06:45:40.415Z,79.80
2022-08-23T06:48:48.539Z,79.50
2022-08-23T06:51:52.459Z,80.20
2022-08-23T06:54:55.211Z,78.90
2022-08-23T06:57:56.869Z,78.80
2022-08-23T07:01:44.780Z,79.20
2022-08-23T07:04:45.612Z,76.90
2022-08-23T07:07:47.293Z,79.50
2022-08-23T07:10:48.978Z,78.40
2022-08-23T07:13:52.053Z,77.60
2022-08-23T07:16:57.508Z,77.30
2022-08-23T07:20:00.131Z,77.90
2022-08-23T07:23:01.993Z,77.20
2022-08-23T07:26:08.755Z,76.90
2022-08-23T07:29:11.352Z,76.20
2022-08-23T07:32:14.114Z,76.00
2022-08-23T07:35:15.884Z,76.50
2022-08-23T07:38:18.285Z,75.80
2022-08-23T07:41:20.555Z,75.60
2022-08-23T07:44:24.461Z,76.30
2022-08-23T07:47:29.575Z,75.40
2022-08-23T07:50:31.160Z,75.20
2022-08-23T07:53:37.603Z,75.60
2022-08-23T07:56:40.501Z,75.70
2022-08-23T07:59:42.155Z,74.90
2022-08-23T08:02:43.882Z,75.90
2022-08-23T08:05:45.857Z,74.60
2022-08-23T08:08:48.563Z,75.90
2022-08-23T08:11:52.224Z,74.40
2022-08-23T08:14:54.694Z,74.20
2022-08-23T08:17:56.317Z,74.70
2022-08-23T08:20:58.476Z,74.10
2022-08-23T08:24:00.912Z,74.60
2022-08-23T08:27:02.568Z,73.90
2022-08-23T08:30:06.478Z,74.00
2022-08-23T08:33:08.088Z,73.10
2022-08-23T08:36:32.034Z,74.70
2022-08-23T08:39:34.502Z,73.90
2022-08-23T08:42:51.638Z,73.70
2022-08-23T08:46:03.293Z,73.60
2022-08-23T08:49:07.582Z,73.10
2022-08-23T08:52:21.047Z,73.10
2022-08-23T08:55:27.260Z,73.10
2022-08-23T08:58:41.001Z,73.30
2022-08-23T09:01:42.700Z,72.40
2022-08-23T09:04:45.830Z,72.80
2022-08-23T09:07:50.399Z,72.00
2022-08-23T09:11:02.681Z,70.50
2022-08-23T09:14:42.302Z,73.40
2022-08-23T09:17:51.957Z,69.90
2022-08-23T09:20:55.237Z,71.90
2022-08-23T09:24:01.001Z,71.50
2022-08-23T09:27:03.934Z,71.60
2022-08-23T09:30:07.435Z,71.00
2022-08-23T09:33:26.409Z,70.70
2022-08-23T09:36:33.889Z,71.60
2022-08-23T09:39:39.066Z,72.10
2022-08-23T09:42:41.400Z,72.00
2022-08-23T09:45:56.650Z,71.30
2022-08-23T09:49:01.031Z,72.80
2022-08-23T09:52:22.360Z,70.70
2022-08-23T09:55:38.778Z,70.90
2022-08-23T09:58:44.038Z,69.60
2022-08-23T10:01:48.226Z,70.60
2022-08-23T10:05:04.049Z,69.20
2022-08-23T10:08:10.244Z,66.80
2022-08-23T10:11:20.363Z,70.10
2022-08-23T10:14:23.487Z,67.90
2022-08-23T10:18:03.529Z,67.90
2022-08-23T10:21:27.687Z,67.50
2022-08-23T10:24:35.787Z,68.80
2022-08-23T10:28:25.988Z,68.50
2022-08-23T10:31:42.872Z,66.20
2022-08-23T10:35:00.917Z,72.20
2022-08-23T10:38:40.532Z,70.10
2022-08-23T10:42:13.187Z,66.40
2022-08-23T10:45:25.564Z,66.00
2022-08-23T10:48:31.967Z,64.30
2022-08-23T10:51:40.535Z,67.00
2022-08-23T10:55:16.375Z,67.70
2022-08-23T10:58:23.639Z,63.40
2022-08-23T11:01:36.054Z,66.90
2022-08-23T11:04:37.635Z,63.90
2022-08-23T11:07:43.220Z,65.00
2022-08-23T11:10:55.657Z,65.80
2022-08-23T11:13:59.014Z,65.50
2022-08-23T11:17:05.568Z,65.30
2022-08-23T11:20:11.661Z,64.90
2022-08-23T11:23:14.994Z,64.70
2022-08-23T11:26:22.543Z,64.00
2022-08-23T11:29:24.094Z,64.80
2022-08-23T11:32:45.322Z,66.40
2022-08-23T11:36:16.364Z,62.10
2022-08-23T11:39:20.537Z,61.90
2022-08-23T11:42:51.907Z,64.50
2022-08-23T11:46:13.181Z,62.60
2022-08-23T11:49:30.243Z,64.00
2022-08-23T11:53:08.016Z,63.70
2022-08-23T11:56:28.305Z,62.30
2022-08-23T11:59:57.725Z,63.70
2022-08-23T12:03:34.250Z,61.50
2022-08-23T12:06:40.758Z,65.10
2022-08-23T12:09:42.308Z,62.40
2022-08-23T12:12:47.259Z,61.40
2022-08-23T12:16:30.276Z,61.00
2022-08-23T12:19:41.792Z,64.20
2022-08-23T12:23:07.711Z,59.50
2022-08-23T12:26:35.307Z,62.10
2022-08-23T12:29:49.212Z,59.30
2022-08-23T12:33:08.376Z,63.10
2022-08-23T12:36:16.827Z,59.10
2022-08-23T12:39:26.545Z,58.30
2022-08-23T12:42:34.839Z,59.40
2022-08-23T12:45:42.547Z,60.70
2022-08-23T12:48:47.300Z,59.70
2022-08-23T12:51:51.623Z,60.30
2022-08-23T12:54:55.002Z,60.00
2022-08-23T12:57:58.048Z,59.40
2022-08-23T13:01:04.548Z,60.10
2022-08-23T13:04:10.747Z,59.80
2022-08-23T13:07:19.777Z,58.50
2022-08-23T13:10:21.639Z,59.40
2022-08-23T13:13:26.670Z,58.80
2022-08-23T13:16:32.974Z,59.40
2022-08-23T13:19:34.623Z,56.70
2022-08-23T13:23:00.486Z,57.90
2022-08-23T13:26:24.819Z,58.50
2022-08-23T13:29:26.432Z,57.30
2022-08-23T13:32:29.468Z,58.60
2022-08-23T13:35:34.117Z,58.90
2022-08-23T13:38:36.078Z,60.10
2022-08-23T13:41:38.856Z,61.30
2022-08-23T13:44:42.993Z,61.50
2022-08-23T13:47:50.645Z,60.90
2022-08-23T13:50:53.169Z,60.60
2022-08-23T13:53:56.905Z,59.10
2022-08-23T13:57:07.604Z,58.30
2022-08-23T14:00:10.794Z,58.40
2022-08-23T14:03:12.730Z,57.00
2022-08-23T14:06:14.367Z,58.00
2022-08-23T14:09:17.093Z,58.00
2022-08-23T14:12:22.797Z,57.10
2022-08-23T14:15:54.542Z,58.80
2022-08-23T14:22:07.862Z,59.00
2022-08-23T14:25:10.904Z,57.70
2022-08-23T14:28:13.191Z,57.40
2022-08-23T14:31:15.019Z,58.50
2022-08-23T14:34:16.631Z,57.70
2022-08-23T14:38:02.393Z,57.60
2022-08-23T14:40:39.957Z,56.90
2022-08-23T14:43:41.553Z,56.60
2022-08-23T14:46:46.509Z,55.60
2022-08-23T14:49:52.002Z,57.20
2022-08-23T14:52:55.808Z,57.40
2022-08-23T14:56:20.344Z,55.40
2022-08-23T14:59:19.247Z,56.10
2022-08-23T15:02:24.615Z,56.70
2022-08-23T15:05:26.223Z,56.70
2022-08-23T15:08:27.835Z,56.30
2022-08-23T15:14:51.150Z,57.70
2022-08-23T15:17:56.889Z,56.50
2022-08-23T15:20:58.655Z,55.60
2022-08-23T15:24:00.240Z,57.70
2022-08-23T15:27:03.324Z,57.10
2022-08-23T15:30:05.618Z,57.70
2022-08-23T15:33:07.378Z,57.00
2022-08-23T15:36:16.115Z,59.00
2022-08-23T15:39:18.450Z,57.70
2022-08-23T15:42:20.728Z,58.30
2022-08-23T15:45:22.506Z,60.10
2022-08-23T15:48:30.778Z,60.30
2022-08-23T15:51:32.460Z,59.50
2022-08-23T15:54:34.024Z,59.40
2022-08-23T15:57:50.576Z,60.70
2022-08-23T16:00:53.188Z,60.10
2022-08-23T16:03:54.819Z,61.80
2022-08-23T16:06:56.464Z,59.90
2022-08-23T16:09:59.645Z,60.00
2022-08-23T16:13:03.391Z,62.20
2022-08-23T16:16:05.376Z,59.90
2022-08-23T16:19:09.719Z,61.10
2022-08-23T16:22:15.960Z,62.70
2022-08-23T16:25:17.606Z,60.70
2022-08-23T16:28:19.205Z,60.70
2022-08-23T16:31:21.004Z,61.30
2022-08-23T16:34:39.167Z,61.30
2022-08-23T16:37:40.721Z,61.90
2022-08-23T16:40:42.325Z,63.70
2022-08-23T16:43:43.918Z,61.40
2022-08-23T16:46:45.572Z,61.60
2022-08-23T16:49:47.177Z,62.30
2022-08-23T16:52:48.816Z,61.70
2022-08-23T16:55:50.634Z,62.50
2022-08-23T16:58:52.296Z,62.10
2022-08-23T17:01:58.261Z,62.10
2022-08-23T17:05:00.759Z,63.70
2022-08-23T17:08:03.100Z,63.70
2022-08-23T17:11:05.980Z,62.50
2022-08-23T17:14:07.639Z,62.60
2022-08-23T17:17:09.254Z,63.50
2022-08-23T17:20:15.299Z,62.50
2022-08-23T17:23:18.160Z,62.60
2022-08-23T17:26:20.328Z,63.70
2022-08-23T17:29:21.949Z,62.90
2022-08-23T17:32:23.572Z,63.40
2022-08-23T17:35:29.383Z,63.20
2022-08-23T17:38:35.633Z,64.40
2022-08-23T17:41:40.048Z,63.90
2022-08-23T17:44:44.173Z,63.10
2022-08-23T17:47:46.168Z,62.30
2022-08-23T17:50:48.468Z,62.90
2022-08-23T17:53:50.116Z,61.60
2022-08-23T17:56:51.820Z,61.70
2022-08-23T17:59:53.622Z,60.60
2022-08-23T18:02:55.239Z,60.00
2022-08-23T18:05:57.156Z,58.90
2022-08-23T18:08:58.987Z,58.90
2022-08-23T18:12:02.441Z,59.90
2022-08-23T18:15:04.775Z,61.60
2022-08-23T18:18:06.733Z,63.10
2022-08-23T18:21:09.794Z,64.90
2022-08-23T18:24:11.637Z,65.70
2022-08-23T18:27:32.190Z,66.00
2022-08-23T18:30:44.146Z,65.60
2022-08-23T18:33:47.147Z,65.10
2022-08-23T18:36:49.171Z,68.30
2022-08-23T18:40:24.335Z,68.60
2022-08-23T18:43:27.535Z,66.30
2022-08-23T18:46:41.189Z,69.50
2022-08-23T18:49:43.222Z,68.50
2022-08-23T18:52:45.179Z,69.40
2022-08-23T18:55:47.157Z,69.20
2022-08-23T18:58:48.887Z,69.30
2022-08-23T19:01:51.089Z,70.20
2022-08-23T19:04:55.882Z,69.40
2022-08-23T19:07:57.781Z,68.10
2022-08-23T19:10:59.495Z,70.00
2022-08-23T19:14:04.379Z,69.50
2022-08-23T19:17:09.614Z,70.60
2022-08-23T19:20:12.059Z,70.70
2022-08-23T19:23:13.796Z,71.90
2022-08-23T19:26:17.235Z,71.80
2022-08-23T19:29:20.535Z,71.60
2022-08-23T19:32:22.193Z,71.90
2022-08-23T19:35:25.078Z,71.70
2022-08-23T19:38:27.749Z,71.00
2022-08-23T19:41:30.127Z,71.60
2022-08-23T19:44:34.849Z,71.90
2022-08-23T19:47:36.483Z,71.50
2022-08-23T19:50:40.588Z,72.70
2022-08-23T19:53:42.354Z,71.50
2022-08-23T19:56:48.605Z,71.80
2022-08-23T19:59:50.204Z,72.20
2022-08-23T20:02:51.824Z,71.70
2022-08-23T20:05:53.392Z,73.10
2022-08-23T20:08:55.375Z,72.20
2022-08-23T20:11:58.138Z,73.20
2022-08-23T20:15:01.220Z,72.40
2022-08-23T20:18:02.895Z,72.30
2022-08-23T20:21:05.864Z,72.70
2022-08-23T20:24:13.116Z,73.10
2022-08-23T20:27:24.480Z,71.50
2022-08-23T20:30:33.376Z,74.00
2022-08-23T20:33:34.968Z,74.10
2022-08-23T20:36:36.571Z,73.50
2022-08-23T20:39:38.241Z,73.40
2022-08-23T20:42:40.082Z,73.70
2022-08-23T20:45:41.671Z,74.40
2022-08-23T20:48:51.280Z,73.60
2022-08-23T20:51:52.911Z,73.60
2022-08-23T20:54:54.506Z,74.60
2022-08-23T20:57:56.130Z,73.80
2022-08-23T21:00:58.119Z,74.30
2022-08-23T21:04:01.040Z,74.90
2022-08-23T21:07:02.644Z,74.50
2022-08-23T21:10:05.367Z,75.10
2022-08-23T21:13:10.604Z,74.50
2022-08-23T21:16:13.841Z,75.00
2022-08-23T21:19:16.226Z,75.00
2022-08-23T21:22:17.886Z,75.30
2022-08-23T21:25:21.252Z,76.50
2022-08-23T21:28:24.285Z,75.30
2022-08-23T21:31:26.751Z,76.50
2022-08-23T21:34:28.569Z,76.40
2022-08-23T21:37:31.171Z,76.50
2022-08-23T21:40:32.780Z,76.70
2022-08-23T21:43:37.158Z,75.70
2022-08-23T21:46:39.162Z,77.10
2022-08-23T21:49:40.889Z,77.40
2022-08-23T21:52:42.516Z,76.80
2022-08-23T21:55:45.177Z,75.90
2022-08-23T21:58:50.660Z,75.70
2022-08-23T22:01:52.497Z,77.00
2022-08-23T22:04:54.405Z,77.20
2022-08-23T22:07:56.017Z,76.90
2022-08-23T22:11:07.082Z,76.50
2022-08-23T22:14:14.433Z,78.30
2022-08-23T22:17:17.742Z,75.50
2022-08-23T22:20:19.562Z,79.10
2022-08-23T22:23:21.601Z,79.30
2022-08-23T22:26:23.230Z,78.50
2022-08-23T22:29:24.910Z,78.40
2022-08-23T22:32:26.712Z,77.60
2022-08-23T22:35:28.529Z,78.70
2022-08-23T22:38:30.612Z,77.50
2022-08-23T22:41:33.234Z,79.10
2022-08-23T22:44:35.196Z,78.80
2022-08-23T22:47:36.823Z,78.70
2022-08-23T22:50:38.425Z,79.90
2022-08-23T22:53:43.629Z,79.50
2022-08-23T22:56:53.238Z,79.20
2022-08-23T22:59:55.045Z,77.80
2022-08-23T23:02:56.839Z,80.50
2022-08-23T23:05:58.583Z,79.60
2022-08-23T23:09:02.243Z,80.10
2022-08-23T23:12:04.266Z,80.20
2022-08-23T23:15:06.571Z,79.70
2022-08-23T23:18:09.408Z,79.30
2022-08-23T23:21:11.008Z,81.00
2022-08-23T23:24:17.321Z,81.50
2022-08-23T23:27:18.964Z,82.00
2022-08-23T23:30:21.047Z,82.10
2022-08-23T23:33:24.392Z,82.20
2022-08-23T23:36:26.494Z,81.20
2022-08-23T23:39:28.867Z,81.40
2022-08-23T23:42:30.625Z,81.50
2022-08-23T23:45:32.459Z,81.10
2022-08-23T23:48:34.136Z,82.10
2022-08-23T23:51:35.734Z,82.60
2022-08-23T23:54:38.362Z,82.00
2022-08-23T23:57:40.093Z,81.40
